Valenciennes-Denain Airfield

LFAV · Hauts-de-France, 法国

罗盘
风向 的 Valenciennes-Denain Airport 6/24
风: 0 kt, 0 beaufort


改变
0 1.000 2.000 3.000 4.000 5.000
垂直能见度
METAR LFQQ 030130Z AUTO 00000KT 0650 0550 R26/0900U R08/0800U FG VV/// 07/07 Q1027 TEMPO 0300 FG

METAR Valenciennes-Denain Airport - LFAV

Valenciennes-Denain Airport是Valenciennes/Denain,法国中的中型机场。 该机场有2条跑道: 6/24 和 11/29. 该领域的国际民航组织标志是LFAV.

这份报告是针对2022年10月3日 03:30, 当地时间在Lille-Lesquin Airport进行的。

机场观察

可变方向的风很小或没有风。

可见度为550 m。 跑道26的能见度为900 m 和 增加。 跑道08的能见度为800 m 和 增加。

垂直能见度为0 ft 没有观察到天花板。

当前天气为多雾路段。 温度和风寒是7 °C。 露点为7 °C,相对湿度为100%。 海平面上的气压为1027 hPa (QNH)。

发展趋势

  • 暂时的

    可变方向的风很小或没有。 可见性变为300 m。 重大天气:多雾路段。

白天

今天,太阳从07:49升起,在19:20降落。 这适用于Valenciennes-Denain Airport,世界夏令时可能有所不同。 当地时间与世界标准时间之间的时差为+2 小时。 夏令时目前正在进行中。

公司介绍

在这个机场,你可以找到飞行俱乐部。 本场上唯一已知的公司是Aéroclub Valenciennes Hainaut。

体会

到Vliegles.nl去找飞行课程,跳伞和其他飞行体验。 浏览页面,了解Valenciennes-Denain Airport附近所有可用的活动。 你也可以使用搜索功能来寻找你所在地附近的特定飞行课程、跳伞或其他飞行体验。

警示语

垂直能见度为0 ft。
跑道26处的能见度为900 m 和 增加。
跑道08处的能见度为800 m 和 增加。

跑道

Id 标题 侧风 逆风 侧风 %
6/24 060°-240°
11/29 110°-290°

逆风成分最大的方向会被突出显示,并用于横风计算。 这并不一定意味着这个方向在使用。

乌云

0 ft VV 垂直能见度

温度 & 天气

天气 多雾路段
温度 7 °C
露点 7 °C
相对湿度 100%
Kp-index 3 (0-9)

白天

日出
07:51 (4h 10m)
中午
13:36
日落
19:22

小工具

你想在你的网站上有一个关于Valenciennes-Denain Airport的当前航空天气(METAR)的小部件吗?

</> 显示HTML代码

我们和第三方通过cookies跟踪您在我们网站上的上网行为。如果您继续,我们认为您同意我们的cookie政策。 了解更多